Time;durP1;ratioP1;P1;durP2;ratioP2;P2;SDS_P1;SDS_P2;PMS_P1;PMS_P2;Temp;Humidity;BMP_temperature;BMP_pressure;BME280_temperature;BME280_humidity;BME280_pressure;Samples;Min_cycle;Max_cycle;Signal;HPM_P1;HPM_P2
2022/12/26 00:00:44;;;;;;;57.42;15.57;;;9.30;99.90;;;;;;6279505;22;20050;-79
2022/12/26 00:03:09;;;;;;;55.95;14.63;;;9.00;99.90;;;;;;6257405;22;20011;-75
2022/12/26 00:05:36;;;;;;;78.10;14.65;;;10.00;99.90;;;;;;6255147;22;20222;-77
2022/12/26 00:08:07;;;;;;;67.35;14.25;;;9.40;99.90;;;;;;6281416;22;20193;-78
2022/12/26 00:10:45;;;;;;;75.68;14.15;;;9.20;99.90;;;;;;6258069;22;20354;-78
2022/12/26 00:13:39;;;;;;;55.78;12.77;;;9.10;99.90;;;;;;6233816;22;20011;-77
2022/12/26 00:16:09;;;;;;;64.40;14.38;;;9.40;99.90;;;;;;6243830;22;20313;-78
2022/12/26 00:18:46;;;;;;;67.28;14.45;;;9.70;99.90;;;;;;6231201;22;20026;-77
2022/12/26 00:21:13;;;;;;;59.83;14.02;;;9.20;99.90;;;;;;6256461;22;20019;-78
2022/12/26 00:23:39;;;;;;;62.33;14.38;;;9.10;99.90;;;;;;6256540;22;20015;-78
2022/12/26 00:26:08;;;;;;;64.63;14.48;;;9.50;99.90;;;;;;6231553;22;20035;-77
2022/12/26 00:28:34;;;;;;;60.75;13.65;;;9.30;99.90;;;;;;6281251;22;20026;-79
2022/12/26 00:31:09;;;;;;;65.38;14.23;;;9.30;99.90;;;;;;6256783;22;20011;-77
2022/12/26 00:33:36;;;;;;;44.13;13.15;;;9.00;99.90;;;;;;6279968;22;20064;-77
2022/12/26 00:36:04;;;;;;;41.92;11.68;;;9.00;99.90;;;;;;6281366;22;20026;-78
2022/12/26 00:38:35;;;;;;;53.13;12.88;;;9.40;99.90;;;;;;6281280;22;20019;-76
2022/12/26 00:41:07;;;;;;;44.85;12.48;;;9.20;99.90;;;;;;6256229;22;20015;-76
2022/12/26 00:43:35;;;;;;;44.90;12.82;;;9.00;99.90;;;;;;6280668;22;20007;-77
2022/12/26 00:46:01;;;;;;;46.28;12.32;;;9.40;99.90;;;;;;6229886;22;20570;-78
2022/12/26 00:48:27;;;;;;;41.00;12.70;;;9.40;99.90;;;;;;6256611;22;20057;-78
2022/12/26 00:50:54;;;;;;;39.88;12.50;;;9.20;99.90;;;;;;6231400;22;20018;-78
2022/12/26 00:54:27;;;;;;;51.80;13.55;;;9.20;99.90;;;;;;6256645;22;20041;-79
2022/12/26 00:56:43;;;;;;;44.78;13.05;;;9.30;99.90;;;;;;6244024;22;20015;-79
2022/12/26 00:59:09;;;;;;;45.20;13.25;;;9.00;99.90;;;;;;6282587;22;20019;-76
2022/12/26 01:01:34;;;;;;;47.13;13.20;;;9.00;99.90;;;;;;6256065;22;20056;-79
2022/12/26 01:04:00;;;;;;;42.08;13.00;;;9.00;99.90;;;;;;6257510;22;20529;-77
2022/12/26 01:06:26;;;;;;;46.20;12.85;;;9.40;99.90;;;;;;6233251;22;20053;-77
2022/12/26 01:09:45;;;;;;;50.78;14.10;;;9.40;99.90;;;;;;6258156;22;20011;-79
2022/12/26 01:12:23;;;;;;;51.15;13.70;;;9.10;99.90;;;;;;6277493;22;20153;-79
2022/12/26 01:14:49;;;;;;;56.75;14.80;;;9.00;99.90;;;;;;6256808;22;20046;-79
2022/12/26 01:17:15;;;;;;;57.10;16.30;;;9.20;99.90;;;;;;6231401;22;20011;-79
2022/12/26 01:19:40;;;;;;;59.53;15.27;;;9.50;99.90;;;;;;6257169;22;20089;-78
2022/12/26 01:22:14;;;;;;;57.75;15.18;;;9.20;99.90;;;;;;6256717;22;20037;-79
2022/12/26 01:24:56;;;;;;;60.00;15.43;;;9.40;99.90;;;;;;6260953;22;20191;-78
2022/12/26 01:27:26;;;;;;;56.83;15.10;;;9.00;99.90;;;;;;6284269;22;20293;-80
2022/12/26 01:34:04;;;;;;;69.30;16.05;;;9.30;99.90;;;;;;6092628;23;20059;-79
2022/12/26 01:40:04;;;;;;;61.55;15.38;;;9.30;99.90;;;;;;6241689;22;20308;-77
2022/12/26 01:42:37;;;;;;;60.38;16.42;;;9.50;99.90;;;;;;6230227;22;20011;-77
2022/12/26 01:45:22;;;;;;;65.30;15.90;;;9.00;99.90;;;;;;6281708;22;20015;-77
2022/12/26 01:47:54;;;;;;;56.92;15.63;;;9.30;99.90;;;;;;6256599;22;20252;-77
2022/12/26 01:50:45;;;;;;;56.70;15.35;;;9.40;99.90;;;;;;6257581;22;20019;-77
2022/12/26 01:53:20;;;;;;;68.13;16.83;;;9.20;99.90;;;;;;6254468;22;20027;-77
2022/12/26 01:55:53;;;;;;;55.38;16.38;;;9.40;99.90;;;;;;6255265;22;20015;-77
2022/12/26 01:58:37;;;;;;;50.05;14.52;;;9.00;99.90;;;;;;6256710;22;20202;-77
2022/12/26 02:01:34;;;;;;;64.43;16.02;;;9.00;99.90;;;;;;6259201;22;20202;-78
2022/12/26 02:07:09;;;;;;;58.95;17.05;;;8.60;99.90;;;;;;6281666;22;20071;-77
2022/12/26 02:09:36;;;;;;;48.03;15.07;;;9.30;99.90;;;;;;6258516;22;20022;-77
2022/12/26 02:12:12;;;;;;;54.70;15.13;;;9.50;99.90;;;;;;6229818;22;20019;-77
2022/12/26 02:14:45;;;;;;;45.65;13.77;;;9.50;99.90;;;;;;6282729;22;20015;-76
2022/12/26 02:17:18;;;;;;;50.15;14.00;;;9.20;99.90;;;;;;6281373;22;20253;-76
2022/12/26 02:23:48;;;;;;;39.33;12.73;;;9.00;99.90;;;;;;6054692;22;20034;-76
2022/12/26 02:26:59;;;;;;;43.83;13.82;;;9.50;99.90;;;;;;6283946;22;20015;-77
2022/12/26 02:29:33;;;;;;;33.58;11.70;;;9.40;99.90;;;;;;6212011;22;20053;-76
2022/12/26 02:32:02;;;;;;;34.92;12.35;;;9.40;99.90;;;;;;6283470;22;20011;-77
2022/12/26 02:34:56;;;;;;;42.25;13.25;;;9.30;99.90;;;;;;6281359;22;20007;-76
2022/12/26 02:41:46;;;;;;;;;;;;;;;;;;;;;
2022/12/26 02:48:03;;;;;;;37.13;12.90;;;9.50;99.90;;;;;;6281994;22;20015;-77
2022/12/26 03:19:24;;;;;;;32.28;12.98;;;9.30;99.90;;;;;;6273700;22;20184;-78
2022/12/26 03:21:50;;;;;;;29.38;12.00;;;10.10;99.90;;;;;;6228214;22;20093;-77
2022/12/26 03:24:17;;;;;;;25.95;12.00;;;9.50;99.90;;;;;;6254494;22;20681;-76
2022/12/26 03:26:53;;;;;;;28.98;12.10;;;9.60;99.90;;;;;;6279888;22;20295;-76
2022/12/26 03:32:09;;;;;;;33.22;15.65;;;9.40;99.90;;;;;;6278671;22;20351;-75
2022/12/26 03:35:13;;;;;;;30.85;14.40;;;9.60;99.90;;;;;;6278228;22;20047;-78
2022/12/26 04:45:38;;;;;;;41.20;19.17;;;10.40;99.90;;;;;;6194251;23;20075;-77
2022/12/26 04:50:55;;;;;;;48.92;21.08;;;9.30;99.90;;;;;;6220167;22;20023;-77
2022/12/26 04:53:21;;;;;;;48.38;20.92;;;9.50;99.90;;;;;;6259351;22;20018;-76
2022/12/26 04:55:47;;;;;;;43.28;19.38;;;9.50;99.90;;;;;;6259268;22;20443;-77
2022/12/26 04:58:28;;;;;;;;;;;;;;;;;;;;;
2022/12/26 05:09:33;;;;;;;46.00;20.10;;;10.30;99.90;;;;;;6283562;22;20015;-78
2022/12/26 05:09:38;;;;;;;40.50;18.43;;;9.80;99.90;;;;;;6286186;22;20023;-77
2022/12/26 05:12:08;;;;;;;42.42;19.20;;;9.70;99.90;;;;;;6260561;22;20066;-78
2022/12/26 05:14:34;;;;;;;46.95;20.77;;;9.60;99.90;;;;;;6286339;22;20026;-79
2022/12/26 05:30:59;;;;;;;39.83;20.70;;;9.90;99.90;;;;;;6285207;22;20046;-77
2022/12/26 05:36:20;;;;;;;35.63;20.23;;;9.80;99.90;;;;;;6286665;22;20034;-78
2022/12/26 05:38:47;;;;;;;37.30;18.60;;;9.70;99.90;;;;;;6262209;22;20034;-76
2022/12/26 05:41:13;;;;;;;33.63;18.45;;;9.20;99.90;;;;;;6235884;22;20014;-77
2022/12/26 05:43:39;;;;;;;33.17;17.90;;;9.40;99.90;;;;;;6237338;22;20115;-77
2022/12/26 05:46:05;;;;;;;34.50;19.95;;;9.30;99.90;;;;;;6236464;22;20218;-77
2022/12/26 05:48:30;;;;;;;38.45;19.58;;;9.10;99.90;;;;;;6260173;22;20082;-77
2022/12/26 05:51:01;;;;;;;36.70;19.38;;;9.00;99.90;;;;;;6262795;22;20053;-77
2022/12/26 05:53:27;;;;;;;32.25;18.77;;;9.30;99.90;;;;;;6261135;22;20039;-78
2022/12/26 05:55:53;;;;;;;33.42;18.33;;;9.20;99.90;;;;;;6286593;22;20011;-78
2022/12/26 05:58:34;;;;;;;34.50;19.42;;;9.40;99.90;;;;;;6261011;22;20053;-76
2022/12/26 06:01:09;;;;;;;32.20;18.33;;;9.60;99.90;;;;;;6233446;22;20015;-77
2022/12/26 06:03:36;;;;;;;32.58;18.55;;;9.40;99.90;;;;;;6259489;22;20007;-76
2022/12/26 06:06:03;;;;;;;35.33;20.75;;;9.80;99.90;;;;;;6260733;22;20090;-75
2022/12/26 06:08:29;;;;;;;33.88;20.02;;;9.10;99.90;;;;;;6260516;22;20093;-78
2022/12/26 06:10:55;;;;;;;35.95;20.52;;;9.40;99.90;;;;;;6287135;22;20011;-78
2022/12/26 06:13:20;;;;;;;35.03;19.65;;;9.80;99.90;;;;;;6233883;22;20309;-78
2022/12/26 06:15:46;;;;;;;36.85;21.42;;;9.60;99.90;;;;;;6260912;22;20019;-78
2022/12/26 06:18:12;;;;;;;33.47;19.60;;;9.30;99.90;;;;;;6270696;22;20233;-76
2022/12/26 06:20:38;;;;;;;35.58;19.83;;;9.80;99.90;;;;;;6255475;22;20053;-77
2022/12/26 06:23:14;;;;;;;31.02;19.10;;;9.70;99.90;;;;;;6204507;22;20213;-78
2022/12/26 06:25:40;;;;;;;31.10;19.63;;;9.70;99.90;;;;;;6230069;22;20038;-77
2022/12/26 06:28:26;;;;;;;31.35;19.27;;;9.60;99.90;;;;;;6254485;22;20020;-78
2022/12/26 06:30:52;;;;;;;33.40;19.60;;;9.50;99.90;;;;;;6227943;22;20015;-76
2022/12/26 06:33:23;;;;;;;31.20;19.40;;;9.70;99.90;;;;;;6226824;22;20020;-78
2022/12/26 06:36:25;;;;;;;;;;;;;;;;;;;;;
2022/12/26 06:39:21;;;;;;;29.55;18.13;;;9.60;99.90;;;;;;6159428;23;20359;-78
2022/12/26 06:43:05;;;;;;;;;;;;;;;;;;;;;
2022/12/26 06:46:11;;;;;;;30.45;17.58;;;9.20;99.90;;;;;;6140158;22;20009;-80
2022/12/26 06:48:56;;;;;;;;;;;;;;;;;;;;;
2022/12/26 06:51:37;;;;;;;27.48;17.33;;;9.50;99.90;;;;;;6230431;22;20019;-78
2022/12/26 06:55:04;;;;;;;;;;;;;;;;;;;;;
2022/12/26 06:58:10;;;;;;;26.23;16.60;;;8.10;99.90;;;;;;6179525;22;20010;-77
2022/12/26 07:01:20;;;;;;;;;;;;;;;;;;;;;
2022/12/26 07:04:26;;;;;;;26.98;15.93;;;9.90;99.90;;;;;;6261189;22;20038;-79
2022/12/26 07:10:20;;;;;;;23.30;14.95;;;8.60;99.90;;;;;;6242221;22;20026;-80
2022/12/26 07:13:51;;;;;;;24.73;16.33;;;9.70;99.90;;;;;;6205361;22;20016;-78
2022/12/26 07:16:28;;;;;;;27.45;16.38;;;9.20;99.90;;;;;;6132461;23;20088;-76
2022/12/26 07:18:57;;;;;;;21.75;15.23;;;8.30;99.90;;;;;;6145729;22;20013;-76
2022/12/26 07:21:24;;;;;;;23.17;15.27;;;9.50;99.90;;;;;;6286458;22;20019;-76
2022/12/26 07:23:51;;;;;;;28.83;15.48;;;9.20;99.90;;;;;;6286724;22;20094;-78
2022/12/26 07:26:17;;;;;;;22.17;14.75;;;9.80;99.90;;;;;;6260734;22;20401;-77
2022/12/26 07:28:42;;;;;;;23.63;14.52;;;9.90;99.90;;;;;;6261618;22;20019;-78
2022/12/26 07:31:08;;;;;;;23.80;15.05;;;9.80;99.90;;;;;;6235116;22;20019;-78
2022/12/26 07:33:34;;;;;;;21.80;15.02;;;9.30;99.90;;;;;;6211378;22;20320;-76
2022/12/26 07:36:05;;;;;;;19.50;12.98;;;9.60;99.90;;;;;;6285334;22;20011;-76
2022/12/26 07:38:42;;;;;;;20.27;14.25;;;9.70;99.90;;;;;;6286299;22;20017;-77
2022/12/26 07:44:01;;;;;;;21.17;13.20;;;8.40;99.90;;;;;;6285759;22;20025;-77
2022/12/26 07:46:27;;;;;;;19.05;13.15;;;9.30;99.90;;;;;;6234861;22;20015;-78
2022/12/26 07:48:55;;;;;;;19.27;13.30;;;9.40;99.90;;;;;;6260910;22;20030;-78
2022/12/26 07:51:24;;;;;;;19.38;12.63;;;9.20;99.90;;;;;;6234077;22;20203;-75
2022/12/26 07:53:49;;;;;;;20.35;12.90;;;9.30;99.90;;;;;;6257266;22;20025;-76
2022/12/26 07:56:15;;;;;;;20.15;12.55;;;9.20;99.90;;;;;;6255920;22;20030;-76
2022/12/26 07:58:41;;;;;;;17.63;11.50;;;9.30;99.90;;;;;;6257322;22;20054;-77
2022/12/26 08:01:18;;;;;;;19.02;11.85;;;9.60;99.90;;;;;;6234324;22;20062;-78
2022/12/26 08:03:47;;;;;;;18.90;12.77;;;11.20;99.90;;;;;;6284212;22;20007;-78
2022/12/26 08:06:13;;;;;;;17.13;11.70;;;9.90;99.90;;;;;;6258608;22;20458;-78
2022/12/26 08:12:41;;;;;;;17.08;11.20;;;9.10;99.90;;;;;;6259331;22;20078;-77
2022/12/26 08:15:38;;;;;;;16.55;10.95;;;9.40;99.90;;;;;;6194551;23;20012;-77
2022/12/26 08:25:48;;;;;;;17.77;9.82;;;8.50;99.90;;;;;;6126556;23;20108;-78
2022/12/26 08:28:17;;;;;;;18.63;10.57;;;10.10;99.90;;;;;;6106277;23;20061;-76
2022/12/26 08:30:43;;;;;;;18.02;10.57;;;9.70;99.90;;;;;;6192896;22;20135;-77
2022/12/26 08:33:15;;;;;;;17.65;10.77;;;9.60;99.90;;;;;;6257880;22;20015;-77
2022/12/26 08:35:45;;;;;;;15.18;9.48;;;9.70;99.90;;;;;;6258405;22;20017;-77
2022/12/26 08:45:18;;;;;;;14.52;9.45;;;8.90;99.90;;;;;;6156004;23;20060;-78
2022/12/26 08:47:47;;;;;;;14.70;9.23;;;9.40;99.90;;;;;;6245922;22;20059;-76
2022/12/26 08:50:36;;;;;;;14.68;9.00;;;9.40;99.90;;;;;;6202800;22;20015;-77
2022/12/26 08:53:35;;;;;;;;;;;;;;;;;;;;;
2022/12/26 08:56:20;;;;;;;16.55;10.05;;;9.50;99.90;;;;;;6277574;22;20059;-77
2022/12/26 08:58:52;;;;;;;17.92;10.48;;;8.40;99.90;;;;;;6252787;22;20478;-77
2022/12/26 09:01:40;;;;;;;24.15;13.77;;;9.70;99.90;;;;;;6226228;22;20135;-77
2022/12/26 09:04:18;;;;;;;18.90;12.63;;;9.40;99.90;;;;;;6226648;22;20071;-78
2022/12/26 09:07:30;;;;;;;19.25;12.57;;;9.80;99.90;;;;;;6177871;22;20008;-80
2022/12/26 09:09:56;;;;;;;17.20;11.63;;;8.60;99.90;;;;;;6229220;22;20541;-76
2022/12/26 09:12:22;;;;;;;19.25;11.50;;;9.20;99.90;;;;;;6205304;22;20019;-76
2022/12/26 09:18:43;;;;;;;15.45;10.00;;;9.40;99.90;;;;;;6033043;23;20569;-76
2022/12/26 09:21:48;;;;;;;17.23;10.68;;;9.50;99.90;;;;;;6015958;23;20066;-78
2022/12/26 09:24:35;;;;;;;15.38;10.57;;;10.40;99.90;;;;;;5981307;23;20019;-76
2022/12/26 09:27:11;;;;;;;15.52;10.52;;;9.00;99.90;;;;;;6071728;23;20010;-77
2022/12/26 09:29:37;;;;;;;18.95;11.05;;;9.60;99.90;;;;;;6214717;22;20271;-75
2022/12/26 09:32:03;;;;;;;16.10;10.75;;;9.70;99.90;;;;;;6205490;22;20015;-75
2022/12/26 09:34:29;;;;;;;17.50;10.68;;;9.30;99.90;;;;;;6230598;22;20191;-75
2022/12/26 09:36:58;;;;;;;18.27;10.48;;;9.50;99.90;;;;;;6204145;22;20007;-74
2022/12/26 09:39:24;;;;;;;17.58;11.75;;;9.80;99.90;;;;;;6229937;22;20110;-74
2022/12/26 09:42:34;;;;;;;13.23;10.07;;;9.80;99.90;;;;;;6204141;22;20012;-75
2022/12/26 09:49:04;;;;;;;13.82;8.07;;;9.70;99.90;;;;;;6227113;22;20023;-76
2022/12/26 09:51:33;;;;;;;12.30;7.32;;;10.00;99.90;;;;;;6228486;22;20248;-74
2022/12/26 09:54:02;;;;;;;9.98;6.38;;;9.80;99.90;;;;;;6254327;22;20022;-74
2022/12/26 09:56:32;;;;;;;11.98;6.57;;;9.40;99.90;;;;;;6226519;22;20019;-75
2022/12/26 09:59:46;;;;;;;10.88;4.65;;;9.90;99.90;;;;;;6223068;23;20012;-73
2022/12/26 10:02:23;;;;;;;10.60;5.07;;;9.70;99.90;;;;;;6192669;23;20016;-74
2022/12/26 10:05:12;;;;;;;15.13;4.30;;;9.80;99.90;;;;;;6222263;23;20020;-75
2022/12/26 10:08:04;;;;;;;12.52;3.30;;;9.10;99.90;;;;;;6223450;23;20016;-74
2022/12/26 10:11:07;;;;;;;8.73;2.33;;;9.00;99.90;;;;;;6223237;23;20012;-77
2022/12/26 10:13:50;;;;;;;9.18;1.77;;;8.90;99.90;;;;;;6206269;23;20026;-75
2022/12/26 10:16:24;;;;;;;7.05;1.90;;;7.30;99.90;;;;;;6197604;23;20139;-77
2022/12/26 10:18:50;;;;;;;14.35;1.85;;;8.80;99.90;;;;;;6247333;22;20023;-77
2022/12/26 10:21:29;;;;;;;8.70;1.80;;;8.20;99.90;;;;;;6255190;22;20359;-76
2022/12/26 10:24:11;;;;;;;10.55;2.42;;;8.40;99.90;;;;;;6254319;22;20031;-75
2022/12/26 10:26:43;;;;;;;8.48;1.75;;;8.40;99.90;;;;;;6254412;22;20023;-77
2022/12/26 10:29:09;;;;;;;9.20;1.98;;;8.40;99.90;;;;;;6257750;22;20547;-74
2022/12/26 10:31:37;;;;;;;7.03;2.05;;;8.60;99.90;;;;;;6259725;22;20074;-75
2022/12/26 10:34:26;;;;;;;9.30;1.92;;;8.50;99.90;;;;;;6260367;22;20065;-75
2022/12/26 10:37:10;;;;;;;10.48;2.20;;;8.20;99.90;;;;;;6285171;22;20019;-74
2022/12/26 10:39:42;;;;;;;9.43;2.20;;;8.00;99.90;;;;;;6260038;22;20061;-76
2022/12/26 10:42:34;;;;;;;8.40;1.73;;;7.90;99.90;;;;;;6259393;22;20007;-75
2022/12/26 10:45:00;;;;;;;11.30;2.28;;;8.00;99.90;;;;;;6275838;22;20438;-77
2022/12/26 10:47:31;;;;;;;5.30;1.75;;;8.00;99.90;;;;;;6232942;22;20020;-76
2022/12/26 10:49:58;;;;;;;7.18;1.70;;;8.10;99.90;;;;;;6259400;22;20026;-76
2022/12/26 10:52:37;;;;;;;8.98;1.85;;;8.00;99.90;;;;;;6283608;22;20019;-77
2022/12/26 10:55:31;;;;;;;5.90;1.92;;;8.00;99.90;;;;;;6259223;22;20011;-77
2022/12/26 10:58:03;;;;;;;9.68;1.70;;;8.00;99.90;;;;;;6257703;22;20343;-77
2022/12/26 11:00:29;;;;;;;10.02;2.50;;;7.90;99.90;;;;;;6259117;22;20015;-77
2022/12/26 11:03:09;;;;;;;6.18;1.40;;;8.00;99.90;;;;;;6259496;22;20007;-75
2022/12/26 11:05:47;;;;;;;5.13;1.33;;;7.60;99.90;;;;;;6286118;22;20011;-76
2022/12/26 11:08:27;;;;;;;6.00;1.13;;;7.50;99.90;;;;;;6260027;22;20046;-76
2022/12/26 11:11:12;;;;;;;9.32;1.55;;;7.50;99.90;;;;;;6285985;22;20022;-75
2022/12/26 11:14:03;;;;;;;11.85;1.42;;;7.50;99.90;;;;;;6258784;22;20011;-75
2022/12/26 11:16:32;;;;;;;13.90;1.95;;;7.50;99.90;;;;;;6285353;22;20019;-74
2022/12/26 11:18:58;;;;;;;6.50;1.40;;;7.80;99.90;;;;;;6258285;22;20011;-76
2022/12/26 11:21:27;;;;;;;9.27;1.38;;;7.30;99.90;;;;;;6234159;22;20018;-76
2022/12/26 11:24:16;;;;;;;9.18;1.45;;;7.50;99.90;;;;;;6258711;22;20037;-76
2022/12/26 11:30:24;;;;;;;7.43;1.25;;;7.10;99.90;;;;;;6285067;22;20309;-79
2022/12/26 11:33:25;;;;;;;12.15;1.40;;;7.30;99.90;;;;;;6256973;22;20030;-76
2022/12/26 11:36:22;;;;;;;6.28;1.27;;;7.50;99.90;;;;;;6105742;23;20596;-76
2022/12/26 11:38:48;;;;;;;5.90;1.10;;;7.20;99.90;;;;;;6247040;22;20023;-77
2022/12/26 11:44:29;;;;;;;8.00;1.40;;;7.20;99.90;;;;;;6264111;22;20022;-77
2022/12/26 11:47:22;;;;;;;9.13;1.58;;;7.30;99.90;;;;;;6283679;22;20190;-76
2022/12/26 11:49:57;;;;;;;8.70;1.30;;;7.30;99.90;;;;;;6252703;22;20011;-77
2022/12/26 11:52:50;;;;;;;12.95;2.00;;;7.10;99.90;;;;;;6257515;22;20018;-76
2022/12/26 11:55:31;;;;;;;7.43;1.75;;;7.10;99.90;;;;;;6260149;22;20012;-76
2022/12/26 11:58:22;;;;;;;15.10;1.50;;;7.00;99.90;;;;;;6258056;22;20019;-74
2022/12/26 12:04:19;;;;;;;9.45;2.03;;;7.60;99.90;;;;;;6262541;22;20011;-76
2022/12/26 12:07:02;;;;;;;8.10;1.55;;;6.40;99.90;;;;;;6282293;22;20388;-74
2022/12/26 12:09:44;;;;;;;7.85;1.30;;;7.00;99.90;;;;;;6258038;22;20015;-75
2022/12/26 12:12:29;;;;;;;8.57;1.50;;;7.00;99.90;;;;;;6258132;22;20011;-75
2022/12/26 12:15:11;;;;;;;8.10;1.70;;;7.10;99.90;;;;;;6258154;22;20019;-77
2022/12/26 12:18:14;;;;;;;11.02;1.40;;;7.10;99.90;;;;;;6283548;22;20021;-75
2022/12/26 12:21:09;;;;;;;6.10;2.20;;;7.00;99.90;;;;;;6259436;22;20043;-75
2022/12/26 12:24:48;;;;;;;7.22;1.75;;;7.20;99.90;;;;;;6284147;22;20018;-75
2022/12/26 12:27:31;;;;;;;9.27;1.92;;;7.00;99.90;;;;;;6138138;22;20021;-77
2022/12/26 12:30:09;;;;;;;8.82;1.88;;;7.00;99.90;;;;;;6258677;22;20011;-75
2022/12/26 12:32:37;;;;;;;7.85;1.63;;;7.10;99.90;;;;;;6257994;22;20038;-75
2022/12/26 12:35:27;;;;;;;7.72;1.60;;;7.00;99.90;;;;;;6258554;22;20015;-74
2022/12/26 12:38:02;;;;;;;8.20;1.90;;;7.00;99.90;;;;;;6283873;22;20053;-74
2022/12/26 12:40:45;;;;;;;13.48;2.45;;;6.90;99.90;;;;;;6283863;22;20019;-74
2022/12/26 12:43:32;;;;;;;8.75;2.15;;;6.90;99.90;;;;;;6259378;22;20101;-75
2022/12/26 12:46:17;;;;;;;13.25;1.88;;;6.80;99.90;;;;;;6282953;22;20088;-75
2022/12/26 12:48:55;;;;;;;20.63;2.20;;;6.80;99.90;;;;;;6254270;22;20015;-74
2022/12/26 12:51:51;;;;;;;12.55;2.00;;;6.80;99.90;;;;;;6284013;22;20061;-77
2022/12/26 12:54:42;;;;;;;13.10;1.85;;;6.80;99.90;;;;;;6260326;22;20011;-75
2022/12/26 12:57:31;;;;;;;13.50;2.63;;;6.70;99.90;;;;;;6252883;22;20019;-74
2022/12/26 13:00:26;;;;;;;9.93;1.80;;;6.70;99.90;;;;;;6284325;22;20015;-76
2022/12/26 13:03:31;;;;;;;11.25;2.00;;;6.30;99.90;;;;;;6258421;22;20081;-73
2022/12/26 13:06:03;;;;;;;12.95;2.35;;;6.40;99.90;;;;;;6258221;22;20049;-75
2022/12/26 13:08:54;;;;;;;10.43;1.95;;;6.70;99.90;;;;;;6283674;22;20069;-75
2022/12/26 13:11:57;;;;;;;10.27;2.05;;;6.70;99.90;;;;;;6258962;22;20046;-75
2022/12/26 13:14:48;;;;;;;12.73;2.80;;;6.80;99.90;;;;;;6283226;22;20029;-73
2022/12/26 13:17:26;;;;;;;10.27;2.63;;;6.60;99.90;;;;;;6283738;22;20288;-73
2022/12/26 13:20:15;;;;;;;14.40;2.50;;;6.80;99.90;;;;;;6257527;22;20031;-75
2022/12/26 13:26:44;;;;;;;10.63;2.42;;;5.40;99.90;;;;;;6283322;22;20018;-76
2022/12/26 13:29:18;;;;;;;13.50;2.28;;;6.60;99.90;;;;;;6240659;22;20050;-79
2022/12/26 13:31:45;;;;;;;8.60;2.22;;;6.80;99.90;;;;;;6257024;22;20019;-76
2022/12/26 13:38:57;;;;;;;;;;;;;;;;;;;;;
2022/12/26 13:44:35;;;;;;;8.45;2.13;;;7.10;99.90;;;;;;6283836;22;20011;-76
2022/12/26 13:47:37;;;;;;;14.77;2.75;;;5.90;99.90;;;;;;6259059;22;20018;-76
2022/12/26 13:50:40;;;;;;;15.13;2.30;;;7.10;99.90;;;;;;6153787;22;20014;-76
2022/12/26 13:56:39;;;;;;;8.38;1.80;;;6.10;99.90;;;;;;6271723;22;20058;-76
2022/12/26 14:00:02;;;;;;;10.63;2.40;;;6.90;99.90;;;;;;6283986;22;20011;-76
2022/12/26 14:06:45;;;;;;;14.43;2.30;;;6.50;99.90;;;;;;6216688;22;20066;-76
2022/12/26 14:09:20;;;;;;;11.00;1.80;;;6.70;99.90;;;;;;6204858;22;20014;-75
2022/12/26 14:12:19;;;;;;;6.13;1.30;;;6.40;99.90;;;;;;6257527;22;20224;-77
2022/12/26 14:15:05;;;;;;;10.95;1.70;;;6.30;99.90;;;;;;6214562;22;20018;-76
2022/12/26 14:18:10;;;;;;;9.57;1.90;;;6.40;99.90;;;;;;6278697;22;20066;-77
2022/12/26 14:20:45;;;;;;;6.55;1.58;;;6.30;99.90;;;;;;6229679;22;20077;-75
2022/12/26 14:23:18;;;;;;;11.07;2.13;;;6.40;99.90;;;;;;6254696;22;20336;-76
2022/12/26 14:25:43;;;;;;;12.85;2.22;;;6.40;99.90;;;;;;6254686;22;20432;-75
2022/12/26 14:28:40;;;;;;;11.00;2.42;;;6.40;99.90;;;;;;6282066;22;20008;-77
2022/12/26 14:31:11;;;;;;;6.30;1.55;;;6.60;99.90;;;;;;6230256;22;20039;-75
2022/12/26 14:34:22;;;;;;;7.90;1.88;;;6.80;99.90;;;;;;6228484;22;20035;-76
2022/12/26 14:36:48;;;;;;;10.30;2.20;;;6.80;99.90;;;;;;6252660;22;20073;-77
2022/12/26 14:39:28;;;;;;;13.70;2.33;;;6.80;99.90;;;;;;6254675;22;20011;-75
2022/12/26 14:44:55;;;;;;;12.27;2.88;;;6.50;99.90;;;;;;6254806;22;20370;-75
2022/12/26 14:47:41;;;;;;;9.23;2.33;;;6.40;99.90;;;;;;6255102;22;20008;-76
2022/12/26 14:50:38;;;;;;;12.30;1.67;;;6.20;99.90;;;;;;6226814;22;20026;-76
2022/12/26 14:53:22;;;;;;;10.50;1.80;;;6.10;99.90;;;;;;6230449;22;20523;-77
2022/12/26 14:56:09;;;;;;;9.63;2.15;;;6.00;99.90;;;;;;6228702;22;20081;-75
2022/12/26 14:58:37;;;;;;;11.52;2.40;;;5.90;99.90;;;;;;6253937;22;20019;-75
2022/12/26 15:01:11;;;;;;;9.30;2.00;;;5.80;99.90;;;;;;6253882;22;20046;-77
2022/12/26 15:03:49;;;;;;;7.50;2.15;;;5.80;99.90;;;;;;6229210;22;20015;-73
2022/12/26 15:06:17;;;;;;;12.32;2.72;;;5.80;99.90;;;;;;6230183;22;20091;-75
2022/12/26 15:08:52;;;;;;;8.27;2.28;;;5.80;99.90;;;;;;6229525;22;20070;-77
2022/12/26 15:11:39;;;;;;;9.77;2.53;;;5.80;99.90;;;;;;6253909;22;20132;-75
2022/12/26 15:14:46;;;;;;;9.88;2.15;;;5.80;99.90;;;;;;6255264;22;20386;-76
2022/12/26 15:17:21;;;;;;;10.80;2.45;;;5.80;99.90;;;;;;6257759;22;20046;-75
2022/12/26 15:28:13;;;;;;;9.35;2.53;;;5.70;99.90;;;;;;6046347;23;20105;-74
2022/12/26 15:30:39;;;;;;;6.45;2.20;;;5.60;99.90;;;;;;6029097;23;20128;-77
2022/12/26 15:33:37;;;;;;;13.98;3.13;;;5.60;99.90;;;;;;6163989;23;20012;-78
2022/12/26 15:36:05;;;;;;;14.43;2.88;;;5.50;99.90;;;;;;6159977;23;20017;-77
2022/12/26 15:42:19;;;;;;;11.80;2.50;;;5.40;99.90;;;;;;6255288;22;20022;-77
2022/12/26 15:45:17;;;;;;;10.85;2.72;;;5.30;99.90;;;;;;6259184;22;20007;-79
2022/12/26 15:48:03;;;;;;;11.85;2.33;;;5.20;99.90;;;;;;6250588;22;20043;-77
2022/12/26 15:51:06;;;;;;;11.05;2.30;;;5.10;99.90;;;;;;6285129;22;20093;-76
2022/12/26 15:53:49;;;;;;;9.20;2.70;;;5.10;99.90;;;;;;6285358;22;20213;-79
2022/12/26 15:57:00;;;;;;;12.10;2.45;;;5.00;99.90;;;;;;6285108;22;20360;-78
2022/12/26 16:00:00;;;;;;;11.25;2.42;;;5.00;99.90;;;;;;6284268;22;20018;-78
2022/12/26 16:02:49;;;;;;;;;;;;;;;;;;;;;
2022/12/26 16:06:15;;;;;;;12.35;2.50;;;4.90;99.90;;;;;;6313152;22;20007;-76
2022/12/26 16:19:29;;;;;;;8.13;2.35;;;4.80;99.90;;;;;;6117811;23;20027;-74
2022/12/26 16:24:57;;;;;;;11.57;2.60;;;4.80;99.90;;;;;;6252778;22;20050;-76
2022/12/26 16:27:24;;;;;;;14.55;3.10;;;5.80;99.90;;;;;;6253032;22;20019;-76
2022/12/26 16:30:20;;;;;;;27.27;4.82;;;4.60;99.90;;;;;;6202304;22;20230;-77
2022/12/26 16:39:45;;;;;;;13.68;3.33;;;4.60;99.90;;;;;;6100961;23;20533;-76
2022/12/26 16:42:31;;;;;;;9.80;3.45;;;4.50;99.90;;;;;;6073413;23;20069;-77
2022/12/26 16:44:58;;;;;;;12.32;3.15;;;4.60;99.90;;;;;;6202211;22;20203;-75
2022/12/26 16:47:33;;;;;;;11.07;2.92;;;4.50;99.90;;;;;;6226097;22;20065;-76
2022/12/26 16:50:04;;;;;;;13.05;2.80;;;4.60;99.90;;;;;;6252427;22;20258;-78
2022/12/26 16:52:40;;;;;;;13.23;2.95;;;4.50;99.90;;;;;;6227507;22;20015;-75
2022/12/26 16:55:56;;;;;;;14.70;3.28;;;4.10;99.90;;;;;;6252877;22;20027;-76
2022/12/26 16:58:28;;;;;;;11.60;2.72;;;4.40;99.90;;;;;;6187272;22;20019;-76
2022/12/26 17:01:12;;;;;;;14.40;3.10;;;4.40;99.90;;;;;;6253301;22;20240;-76
2022/12/26 17:04:15;;;;;;;12.70;3.05;;;4.90;99.90;;;;;;6228015;22;20008;-76
2022/12/26 17:06:57;;;;;;;8.02;2.35;;;4.50;99.90;;;;;;6226386;22;20073;-77
2022/12/26 17:13:52;;;;;;;10.05;2.00;;;4.30;99.90;;;;;;6186010;23;20021;-76
2022/12/26 17:16:25;;;;;;;9.13;2.25;;;3.80;99.90;;;;;;6165620;22;20026;-75
2022/12/26 17:18:58;;;;;;;13.00;2.55;;;4.80;99.90;;;;;;6231777;22;20016;-74
2022/12/26 17:21:28;;;;;;;10.75;2.47;;;4.50;99.90;;;;;;6254071;22;20016;-79
2022/12/26 17:24:25;;;;;;;14.75;4.32;;;4.50;99.90;;;;;;6228111;22;20030;-75
2022/12/26 17:27:08;;;;;;;9.82;2.85;;;4.40;99.90;;;;;;6254175;22;20194;-74
2022/12/26 17:29:57;;;;;;;9.15;2.15;;;4.40;99.90;;;;;;6255354;22;20012;-74
2022/12/26 17:32:25;;;;;;;7.88;2.30;;;4.30;99.90;;;;;;6256245;22;20026;-76
2022/12/26 17:35:03;;;;;;;12.77;2.08;;;4.30;99.90;;;;;;6230468;22;20011;-75
2022/12/26 17:37:35;;;;;;;12.35;3.55;;;4.30;99.90;;;;;;6230482;22;20062;-76
2022/12/26 17:40:07;;;;;;;14.23;2.78;;;4.20;99.90;;;;;;6229021;22;20019;-75
2022/12/26 17:42:56;;;;;;;8.77;1.75;;;4.20;99.90;;;;;;6253459;22;20008;-75
2022/12/26 17:45:26;;;;;;;11.15;2.50;;;4.20;99.90;;;;;;6253647;22;20015;-75
2022/12/26 17:48:11;;;;;;;6.53;1.90;;;4.20;99.90;;;;;;6230287;22;20021;-75
2022/12/26 17:54:16;;;;;;;10.70;2.05;;;4.00;99.90;;;;;;6251265;22;20012;-74
2022/12/26 17:56:57;;;;;;;12.77;3.65;;;4.60;99.90;;;;;;6213745;22;20015;-77
2022/12/26 17:59:28;;;;;;;12.65;3.33;;;3.10;99.90;;;;;;6254111;22;20018;-77
2022/12/26 18:02:04;;;;;;;;;;;;;;;;;;;;;
2022/12/26 18:04:44;;;;;;;16.02;3.17;;;3.90;99.90;;;;;;6248776;22;20054;-75
2022/12/26 18:07:23;;;;;;;10.00;2.25;;;4.20;99.90;;;;;;6278606;22;20041;-76
2022/12/26 18:09:50;;;;;;;11.15;2.92;;;4.10;99.90;;;;;;6203272;22;20023;-74
2022/12/26 18:12:19;;;;;;;11.32;2.40;;;2.70;99.90;;;;;;6202369;22;20186;-76